Time;durP1;ratioP1;P1;durP2;ratioP2;P2;SDS_P1;SDS_P2;PMS_P1;PMS_P2;Temp;Humidity;BMP_temperature;BMP_pressure;BME280_temperature;BME280_humidity;BME280_pressure;Samples;Min_cycle;Max_cycle;Signal;HPM_P1;HPM_P2
2022/03/12 00:01:31;;;;;;;20.67;14.43;;;;;;;12.00;33.84;101195.75;5031076;28;20094;-64
2022/03/12 00:03:58;;;;;;;20.08;14.80;;;;;;;12.01;33.98;101197.44;5024871;28;20021;-64
2022/03/12 00:06:23;;;;;;;18.90;14.80;;;;;;;12.01;33.98;101196.59;5028495;28;20120;-65
2022/03/12 00:08:51;;;;;;;25.70;15.50;;;;;;;12.03;34.13;101189.69;5033058;28;20905;-64
2022/03/12 00:11:19;;;;;;;20.30;14.13;;;;;;;12.02;34.23;101198.28;5031282;28;20064;-64
2022/03/12 00:13:46;;;;;;;20.95;14.65;;;;;;;11.99;34.17;101188.53;5029750;28;20025;-64
2022/03/12 00:16:14;;;;;;;20.35;14.68;;;;;;;12.02;34.47;101201.94;5040681;28;20357;-64
2022/03/12 00:18:44;;;;;;;19.40;14.80;;;;;;;12.00;34.35;101198.53;5031284;28;20054;-64
2022/03/12 00:21:12;;;;;;;21.27;15.05;;;;;;;12.02;34.63;101201.94;5029284;28;20049;-64
2022/03/12 00:23:38;;;;;;;19.08;13.75;;;;;;;12.00;34.63;101195.75;5029393;28;20029;-64
2022/03/12 00:26:03;;;;;;;21.10;15.18;;;;;;;12.01;34.57;101196.59;5028813;28;20034;-64
2022/03/12 00:28:29;;;;;;;20.33;15.25;;;;;;;12.01;34.66;101211.34;5029382;28;20103;-64
2022/03/12 00:30:55;;;;;;;21.25;15.18;;;;;;;11.98;34.68;101209.06;5043696;28;20052;-64
2022/03/12 00:33:21;;;;;;;20.05;13.98;;;;;;;12.00;34.66;101212.44;5032779;28;20128;-64
2022/03/12 00:35:50;;;;;;;19.38;14.45;;;;;;;11.96;34.63;101211.28;5029862;28;20449;-64
2022/03/12 00:38:17;;;;;;;20.10;14.10;;;;;;;11.96;34.74;101213.22;5037280;28;20037;-64
2022/03/12 00:40:43;;;;;;;21.00;14.57;;;;;;;11.99;34.79;101221.91;5030108;28;20121;-64
2022/03/12 00:43:10;;;;;;;23.15;15.35;;;;;;;11.98;34.87;101222.13;5029675;28;20507;-64
2022/03/12 00:45:37;;;;;;;22.02;15.02;;;;;;;11.98;35.29;101219.34;5036213;28;20108;-64
2022/03/12 00:48:02;;;;;;;22.92;14.77;;;;;;;11.98;35.78;101234.09;5029685;28;20084;-65
2022/03/12 00:50:27;;;;;;;20.08;14.38;;;;;;;11.97;36.41;101221.31;5034628;28;20029;-64
2022/03/12 00:52:53;;;;;;;21.90;15.30;;;;;;;11.92;36.23;101226.78;5031048;28;20036;-64
2022/03/12 00:55:18;;;;;;;22.13;14.60;;;;;;;11.94;36.48;101223.75;5029216;28;20083;-64
2022/03/12 00:57:44;;;;;;;23.60;15.40;;;;;;;11.90;37.02;101219.78;5030680;28;20050;-64
2022/03/12 01:00:21;;;;;;;21.27;15.10;;;;;;;11.89;37.33;101218.09;5030274;28;20037;-64
2022/03/12 01:02:47;;;;;;;21.88;15.07;;;;;;;11.87;37.61;101223.94;5022296;28;20507;-65
2022/03/12 01:05:16;;;;;;;18.35;14.73;;;;;;;11.87;37.30;101217.50;5036966;28;20033;-64
2022/03/12 01:07:41;;;;;;;20.15;14.02;;;;;;;11.86;37.48;101221.38;5035962;28;20465;-64
2022/03/12 01:10:07;;;;;;;19.35;14.52;;;;;;;11.85;37.38;101216.94;5043941;28;20037;-64
2022/03/12 01:12:33;;;;;;;21.25;14.50;;;;;;;11.84;37.42;101224.44;5024840;28;20055;-65
2022/03/12 01:14:58;;;;;;;22.92;15.65;;;;;;;11.86;37.62;101225.00;5033534;28;20042;-65
2022/03/12 01:17:24;;;;;;;21.63;15.63;;;;;;;11.87;37.78;101226.72;5039348;28;20384;-64
2022/03/12 01:19:49;;;;;;;20.75;15.20;;;;;;;11.87;38.12;101220.28;5040287;28;20079;-65
2022/03/12 01:22:20;;;;;;;22.67;14.82;;;;;;;11.91;38.41;101224.28;5036116;28;20112;-64
2022/03/12 01:24:46;;;;;;;19.42;14.20;;;;;;;11.89;38.33;101224.50;5025123;28;20481;-64
2022/03/12 01:27:14;;;;;;;21.85;14.57;;;;;;;11.88;38.97;101227.56;5027727;28;20468;-64
2022/03/12 01:29:39;;;;;;;22.23;15.18;;;;;;;11.85;39.65;101233.63;5032905;28;20033;-64
2022/03/12 01:32:05;;;;;;;22.15;15.50;;;;;;;11.80;39.98;101242.69;5036700;28;20025;-64
2022/03/12 01:34:30;;;;;;;21.65;15.48;;;;;;;11.80;40.56;101245.47;5041161;28;20029;-64
2022/03/12 01:36:55;;;;;;;20.38;15.02;;;;;;;11.83;40.84;101250.56;5028150;28;20034;-64
2022/03/12 01:39:20;;;;;;;21.77;15.05;;;;;;;11.83;41.08;101250.56;5030566;28;20030;-64
2022/03/12 01:41:46;;;;;;;22.40;15.43;;;;;;;11.83;41.83;101256.13;5028091;28;20112;-64
2022/03/12 01:44:14;;;;;;;20.20;15.77;;;;;;;11.81;41.64;101249.94;5031905;28;20414;-64
2022/03/12 01:46:43;;;;;;;23.25;15.90;;;;;;;11.76;43.25;101255.41;5033823;28;20156;-64
2022/03/12 01:49:18;;;;;;;20.52;15.25;;;;;;;11.77;43.29;101252.38;5041771;28;20460;-65
2022/03/12 01:51:46;;;;;;;24.85;15.68;;;;;;;11.76;42.64;101260.97;5032161;28;20124;-64
2022/03/12 01:54:16;;;;;;;23.10;14.95;;;;;;;11.72;43.34;101249.50;5039200;28;20025;-64
2022/03/12 01:56:42;;;;;;;22.40;16.08;;;;;;;11.73;43.61;101251.19;5020850;28;20040;-63
2022/03/12 01:59:07;;;;;;;19.92;15.20;;;;;;;11.69;44.20;101250.00;5029624;28;20034;-64
2022/03/12 02:01:33;;;;;;;22.40;16.15;;;;;;;11.70;44.06;101248.91;5033358;28;20464;-64
2022/03/12 02:04:03;;;;;;;21.58;15.18;;;;;;;11.71;44.04;101249.75;5033564;28;20376;-64
2022/03/12 02:06:28;;;;;;;21.50;14.90;;;;;;;11.67;44.11;101243.00;5032827;28;20038;-64
2022/03/12 02:08:58;;;;;;;20.48;16.02;;;;;;;11.69;44.02;101244.44;5036798;28;20025;-64
2022/03/12 02:11:28;;;;;;;19.85;15.23;;;;;;;11.70;43.30;101246.13;5033666;28;20045;-64
2022/03/12 02:14:08;;;;;;;22.00;15.82;;;;;;;11.69;43.75;101238.03;5034446;28;20029;-64
2022/03/12 02:16:34;;;;;;;20.63;14.73;;;;;;;11.70;43.56;101239.72;5037250;28;20033;-64
2022/03/12 02:19:00;;;;;;;22.20;15.50;;;;;;;11.69;43.86;101254.72;5032698;28;20079;-65
2022/03/12 02:21:38;;;;;;;20.45;14.88;;;;;;;11.70;43.34;101256.41;5032548;28;20447;-64
2022/03/12 02:24:16;;;;;;;21.67;15.25;;;;;;;11.70;43.64;101245.28;5032822;28;20128;-64
2022/03/12 02:26:43;;;;;;;22.15;16.25;;;;;;;11.63;44.32;101244.59;5031910;28;20040;-64
2022/03/12 02:29:12;;;;;;;24.73;16.52;;;;;;;11.62;44.25;101240.13;5034881;28;20040;-64
2022/03/12 02:31:39;;;;;;;20.65;14.88;;;;;;;11.58;44.74;101241.72;5032615;28;20021;-65
2022/03/12 02:34:07;;;;;;;18.60;14.63;;;;;;;11.63;44.36;101250.16;5024113;28;20033;-64
2022/03/12 02:36:32;;;;;;;21.35;14.40;;;;;;;11.57;44.59;101251.16;5021861;28;20464;-65
2022/03/12 02:38:58;;;;;;;18.67;14.32;;;;;;;11.61;44.70;101261.53;5033243;28;20036;-64
2022/03/12 02:41:24;;;;;;;21.60;15.02;;;;;;;11.54;45.25;101256.13;5028908;28;20048;-64
2022/03/12 02:43:50;;;;;;;21.10;14.27;;;;;;;11.53;44.79;101254.44;5032890;28;20443;-64
2022/03/12 02:46:16;;;;;;;23.05;15.57;;;;;;;11.51;44.70;101264.97;5032709;28;20029;-64
2022/03/12 02:48:52;;;;;;;20.55;14.95;;;;;;;11.55;44.67;101270.88;5039103;28;20391;-64
2022/03/12 02:51:22;;;;;;;19.58;15.27;;;;;;;11.56;44.80;101267.00;5039592;28;20037;-64
2022/03/12 02:53:51;;;;;;;22.02;14.60;;;;;;;11.60;44.88;101270.13;5045650;28;20475;-64
2022/03/12 02:56:18;;;;;;;21.85;14.88;;;;;;;11.50;44.40;101271.63;5031906;28;20033;-64
2022/03/12 02:58:43;;;;;;;21.08;15.15;;;;;;;11.54;44.53;101272.81;5031354;28;20129;-64
2022/03/12 03:01:14;;;;;;;20.50;15.52;;;;;;;11.53;44.19;101284.19;5039702;28;20824;-64
2022/03/12 03:03:43;;;;;;;20.33;14.88;;;;;;;11.55;44.28;101277.28;5048371;28;20501;-64
2022/03/12 03:06:09;;;;;;;21.13;15.57;;;;;;;11.52;44.11;101276.94;5038606;28;20021;-64
2022/03/12 03:08:37;;;;;;;20.92;15.40;;;;;;;11.52;44.67;101269.44;5040160;28;20036;-64
2022/03/12 03:11:16;;;;;;;18.50;14.52;;;;;;;11.45;44.75;101274.31;5036898;28;20036;-64
2022/03/12 03:13:44;;;;;;;19.67;14.68;;;;;;;11.46;44.69;101272.38;5036761;28;20025;-64
2022/03/12 03:16:21;;;;;;;21.23;14.70;;;;;;;11.42;44.96;101280.34;5033041;28;20036;-64
2022/03/12 03:18:51;;;;;;;21.63;15.18;;;;;;;11.45;44.80;101285.44;5036594;28;20040;-64
2022/03/12 03:21:19;;;;;;;21.95;15.40;;;;;;;11.40;45.31;101285.34;5034847;28;20041;-64
2022/03/12 03:23:45;;;;;;;19.10;14.60;;;;;;;11.43;45.37;101284.81;5030971;28;20029;-64
2022/03/12 03:26:11;;;;;;;19.90;13.95;;;;;;;11.42;45.75;101291.47;5031476;28;20136;-64
2022/03/12 03:28:36;;;;;;;19.63;13.55;;;;;;;11.39;46.13;101286.41;5030543;28;20029;-64
2022/03/12 03:31:05;;;;;;;21.83;13.40;;;;;;;11.38;47.18;101289.44;5039857;28;20442;-64
2022/03/12 03:33:31;;;;;;;17.48;12.77;;;;;;;11.33;47.41;101287.41;5047135;28;20108;-64
2022/03/12 03:35:56;;;;;;;18.30;13.40;;;;;;;11.35;47.94;101292.72;5027871;28;20108;-64
2022/03/12 03:38:22;;;;;;;18.83;12.07;;;;;;;11.33;48.42;101304.09;5025073;28;20048;-64
2022/03/12 03:40:48;;;;;;;18.77;12.65;;;;;;;11.31;48.59;101300.69;5050327;28;20078;-64
2022/03/12 03:43:15;;;;;;;17.95;12.45;;;;;;;11.28;48.64;101295.66;5036539;28;20451;-64
2022/03/12 03:45:49;;;;;;;14.95;11.98;;;;;;;11.28;48.58;101301.22;5030580;28;20033;-64
2022/03/12 03:48:18;;;;;;;16.20;12.50;;;;;;;11.26;49.07;101297.81;5030869;28;20029;-64
2022/03/12 03:50:45;;;;;;;16.33;12.80;;;;;;;11.18;49.58;101301.00;5031786;28;20030;-64
2022/03/12 03:53:13;;;;;;;18.05;12.80;;;;;;;11.24;49.05;101297.25;5027747;28;20037;-64
2022/03/12 03:55:39;;;;;;;17.13;13.13;;;;;;;11.19;49.53;101311.00;5030399;28;20480;-64
2022/03/12 03:58:05;;;;;;;15.43;12.85;;;;;;;11.24;49.18;101313.91;5028769;28;20033;-64
2022/03/12 04:00:33;;;;;;;16.60;12.00;;;;;;;11.22;49.19;101308.59;5029341;28;20083;-64
2022/03/12 04:03:02;;;;;;;18.40;12.55;;;;;;;11.22;49.53;101310.53;5031838;28;20049;-64
2022/03/12 04:05:33;;;;;;;16.20;12.10;;;;;;;11.23;49.87;101315.81;5028675;28;20026;-64
2022/03/12 04:08:00;;;;;;;16.88;11.63;;;;;;;11.18;50.46;101321.28;5028833;28;20492;-65
2022/03/12 04:10:25;;;;;;;14.80;11.43;;;;;;;11.20;50.78;101319.13;5030258;28;20036;-64
2022/03/12 04:12:51;;;;;;;13.50;11.05;;;;;;;11.17;51.37;101324.31;5028585;28;20034;-64
2022/03/12 04:15:17;;;;;;;14.15;11.07;;;;;;;11.10;52.16;101321.66;5024447;28;20112;-64
2022/03/12 04:17:44;;;;;;;13.70;9.43;;;;;;;11.11;52.29;101336.41;5031445;28;20115;-64
2022/03/12 04:20:10;;;;;;;12.73;10.23;;;;;;;11.03;52.99;101332.91;5033943;28;20037;-64
2022/03/12 04:22:38;;;;;;;12.85;10.00;;;;;;;11.05;53.32;101333.53;5030929;28;20076;-64
2022/03/12 04:25:04;;;;;;;11.88;9.80;;;;;;;11.08;53.28;101334.94;5025996;28;20032;-64
2022/03/12 04:27:30;;;;;;;11.18;9.40;;;;;;;11.08;53.48;101337.72;5029692;28;20037;-64
2022/03/12 04:29:55;;;;;;;13.75;9.40;;;;;;;11.03;53.88;101338.47;5029310;28;20043;-64
2022/03/12 04:32:20;;;;;;;10.90;8.88;;;;;;;10.95;54.35;101327.72;5042454;28;20033;-64
2022/03/12 04:34:46;;;;;;;9.45;8.35;;;;;;;11.06;53.89;101337.13;5034399;28;20469;-64
2022/03/12 04:37:11;;;;;;;10.18;8.38;;;;;;;11.00;54.37;101330.66;5030027;28;20037;-64
2022/03/12 04:39:36;;;;;;;9.82;7.82;;;;;;;10.96;54.89;101339.69;5029808;28;20033;-64
2022/03/12 04:42:03;;;;;;;11.90;8.43;;;;;;;10.90;55.30;101337.91;5040896;28;20098;-64
2022/03/12 04:44:28;;;;;;;9.93;7.93;;;;;;;10.95;54.99;101338.00;5034127;28;20096;-64
2022/03/12 04:46:53;;;;;;;9.57;7.97;;;;;;;10.98;54.86;101340.28;5041341;28;20460;-64
2022/03/12 04:49:19;;;;;;;9.88;8.18;;;;;;;10.98;55.33;101340.28;5041045;28;20117;-64
2022/03/12 04:51:44;;;;;;;9.32;7.95;;;;;;;10.98;55.52;101340.28;5033389;28;20025;-65
2022/03/12 04:54:09;;;;;;;11.15;7.82;;;;;;;10.97;55.81;101342.22;5033225;28;20052;-65
2022/03/12 04:56:35;;;;;;;8.27;7.10;;;;;;;10.92;55.93;101341.25;5033290;28;20037;-65
2022/03/12 04:59:01;;;;;;;8.88;7.43;;;;;;;10.90;56.24;101352.63;5040725;28;20116;-65
2022/03/12 05:01:28;;;;;;;10.07;7.50;;;;;;;10.88;56.28;101346.44;5032547;28;20033;-65
2022/03/12 05:03:53;;;;;;;9.48;8.00;;;;;;;10.92;56.29;101355.97;5033997;28;20456;-65
2022/03/12 05:06:20;;;;;;;9.25;7.40;;;;;;;10.88;56.51;101351.16;5042526;28;20021;-65
2022/03/12 05:08:46;;;;;;;10.13;7.60;;;;;;;10.85;56.83;101358.06;5033869;28;20033;-64
2022/03/12 05:11:11;;;;;;;8.32;7.32;;;;;;;10.85;56.98;101355.28;5028587;28;20076;-65
2022/03/12 05:13:37;;;;;;;10.20;7.82;;;;;;;10.84;57.23;101353.59;5028143;28;20530;-64
2022/03/12 05:16:08;;;;;;;10.00;8.52;;;;;;;10.85;57.02;101351.69;5037983;28;20043;-65
2022/03/12 05:18:36;;;;;;;9.70;7.72;;;;;;;10.76;57.56;101354.78;5020670;28;20167;-65
2022/03/12 05:21:01;;;;;;;8.75;7.68;;;;;;;10.79;57.37;101362.66;5030372;28;20068;-63
2022/03/12 05:23:27;;;;;;;9.40;7.70;;;;;;;10.80;57.36;101366.25;5032474;28;20069;-63
2022/03/12 05:25:56;;;;;;;10.10;7.80;;;;;;;10.72;58.05;101372.19;5036916;28;20108;-65
2022/03/12 05:28:29;;;;;;;9.65;7.28;;;;;;;10.77;57.22;101370.38;5031227;28;20032;-65
2022/03/12 05:30:58;;;;;;;8.95;7.82;;;;;;;10.75;57.10;101380.88;5039139;28;20057;-65
2022/03/12 05:33:24;;;;;;;10.07;8.35;;;;;;;10.71;57.52;101373.28;5033009;28;20022;-64
2022/03/12 05:35:53;;;;;;;10.35;8.27;;;;;;;10.70;57.37;101377.16;5032502;28;20060;-65
2022/03/12 05:38:19;;;;;;;9.95;8.23;;;;;;;10.65;57.12;101386.22;5033158;28;20037;-63
2022/03/12 05:40:45;;;;;;;10.43;8.13;;;;;;;10.69;57.14;101383.75;5030063;28;20499;-64
2022/03/12 05:43:14;;;;;;;10.38;8.43;;;;;;;10.65;57.54;101388.97;5032644;28;20030;-64
2022/03/12 05:45:47;;;;;;;9.55;8.02;;;;;;;10.67;57.62;101388.72;5029118;28;20538;-65
2022/03/12 05:48:14;;;;;;;10.27;7.53;;;;;;;10.69;57.51;101395.75;5032839;28;20048;-65
2022/03/12 05:50:40;;;;;;;10.18;7.97;;;;;;;10.62;57.89;101392.22;5032863;28;20112;-64
2022/03/12 05:53:09;;;;;;;11.60;8.18;;;;;;;10.60;58.25;101390.78;5029852;28;20507;-64
2022/03/12 05:55:37;;;;;;;11.63;8.88;;;;;;;10.61;57.92;101398.00;5029274;28;20061;-65
2022/03/12 05:58:02;;;;;;;10.77;8.18;;;;;;;10.60;58.04;101404.66;5034803;28;20049;-65
2022/03/12 06:00:28;;;;;;;9.57;7.78;;;;;;;10.57;58.53;101400.41;5038364;28;20033;-65
2022/03/12 06:02:53;;;;;;;10.35;8.35;;;;;;;10.57;58.24;101406.84;5031598;28;20037;-64
2022/03/12 06:05:21;;;;;;;9.55;7.43;;;;;;;10.54;58.60;101403.69;5025034;28;20046;-64
2022/03/12 06:07:47;;;;;;;9.73;8.05;;;;;;;10.53;58.51;101400.06;5028316;28;20423;-64
2022/03/12 06:10:14;;;;;;;9.70;7.57;;;;;;;10.55;58.47;101397.03;5036579;28;20057;-64
2022/03/12 06:12:44;;;;;;;10.30;7.63;;;;;;;10.56;58.55;101401.50;5031307;28;20049;-63
2022/03/12 06:15:11;;;;;;;10.02;8.02;;;;;;;10.57;58.85;101408.75;5028181;28;20029;-63
2022/03/12 06:17:38;;;;;;;10.88;8.05;;;;;;;10.63;58.76;101406.94;5026780;28;20046;-63
2022/03/12 06:20:04;;;;;;;9.52;8.18;;;;;;;10.67;58.76;101408.16;5026685;28;20057;-63
2022/03/12 06:22:29;;;;;;;10.38;7.55;;;;;;;10.61;58.68;101412.75;5042574;28;20511;-63
2022/03/12 06:24:55;;;;;;;11.23;7.80;;;;;;;10.65;58.43;101413.09;5030898;28;20116;-62
2022/03/12 06:27:22;;;;;;;9.75;7.97;;;;;;;10.63;58.36;101412.50;5030489;28;20029;-64
2022/03/12 06:29:47;;;;;;;11.20;7.85;;;;;;;10.55;58.92;101417.31;5031705;28;20040;-62
2022/03/12 06:32:14;;;;;;;9.50;7.53;;;;;;;10.51;59.33;101421.66;5031128;28;20128;-63
2022/03/12 06:34:41;;;;;;;11.48;8.57;;;;;;;10.55;59.25;101428.41;5031924;28;20042;-63
2022/03/12 06:37:08;;;;;;;10.48;7.78;;;;;;;10.50;59.61;101428.31;5031573;28;20055;-63
2022/03/12 06:39:33;;;;;;;12.02;7.82;;;;;;;10.56;59.11;101424.56;5030768;28;20140;-62
2022/03/12 06:42:01;;;;;;;9.80;7.82;;;;;;;10.57;59.58;101428.16;5030392;28;20124;-62
2022/03/12 06:44:31;;;;;;;9.82;7.97;;;;;;;10.57;59.47;101425.41;5031886;28;20079;-63
2022/03/12 06:46:57;;;;;;;9.82;7.78;;;;;;;10.57;59.69;101426.25;5025977;28;20048;-61
2022/03/12 06:49:23;;;;;;;10.02;7.68;;;;;;;10.58;59.69;101438.22;5027075;28;20472;-62
2022/03/12 06:51:48;;;;;;;10.18;7.65;;;;;;;10.61;59.51;101439.66;5030965;28;20037;-63
2022/03/12 06:54:14;;;;;;;10.63;8.10;;;;;;;10.61;59.33;101434.97;5031276;28;20116;-63
2022/03/12 06:56:39;;;;;;;10.60;7.82;;;;;;;10.60;59.95;101446.28;5025736;28;20117;-63
2022/03/12 06:59:05;;;;;;;10.00;7.53;;;;;;;10.62;59.85;101436.66;5017563;28;20068;-63
2022/03/12 07:01:30;;;;;;;9.48;8.32;;;;;;;10.63;59.77;101448.59;5030229;28;20052;-64
2022/03/12 07:03:55;;;;;;;11.15;8.00;;;;;;;10.62;59.69;101444.97;5030209;28;20380;-65
2022/03/12 07:06:21;;;;;;;8.60;7.70;;;;;;;10.63;59.76;101445.81;5030296;28;20042;-64
2022/03/12 07:08:50;;;;;;;12.88;7.40;;;;;;;10.67;59.85;101453.41;5016241;28;20033;-63
2022/03/12 07:11:18;;;;;;;10.10;7.80;;;;;;;10.68;59.62;101449.56;5013489;28;20100;-64
2022/03/12 07:13:43;;;;;;;11.10;7.95;;;;;;;10.63;60.35;101454.16;5023090;28;20419;-64
2022/03/12 07:16:09;;;;;;;9.52;8.30;;;;;;;10.69;60.13;101455.94;5029857;28;20025;-63
2022/03/12 07:18:34;;;;;;;10.45;7.63;;;;;;;10.65;60.69;101460.28;5029806;28;20381;-63
2022/03/12 07:21:00;;;;;;;9.63;7.53;;;;;;;10.65;60.61;101465.84;5030269;28;20026;-63
2022/03/12 07:23:25;;;;;;;9.55;7.93;;;;;;;10.66;60.24;101467.56;5013731;28;20561;-63
2022/03/12 07:25:52;;;;;;;11.00;7.47;;;;;;;10.67;60.33;101458.13;5012060;28;20527;-63
2022/03/12 07:28:19;;;;;;;10.38;8.63;;;;;;;10.65;60.66;101460.28;5017861;28;20100;-63
2022/03/12 07:30:44;;;;;;;10.23;8.05;;;;;;;10.67;60.63;101475.63;5031345;28;20498;-63
2022/03/12 07:33:10;;;;;;;10.25;8.30;;;;;;;10.68;61.02;101470.91;5020567;28;20022;-63
2022/03/12 07:35:36;;;;;;;10.65;8.45;;;;;;;10.67;60.84;101475.63;5030612;28;20703;-63
2022/03/12 07:38:02;;;;;;;10.55;8.35;;;;;;;10.71;60.46;101481.56;5026768;28;20036;-63
2022/03/12 07:40:28;;;;;;;9.88;7.93;;;;;;;10.76;60.90;101485.28;5012674;28;20033;-61
2022/03/12 07:42:54;;;;;;;9.43;7.82;;;;;;;10.78;60.69;101488.69;5028917;28;20026;-62
2022/03/12 07:45:19;;;;;;;10.45;8.18;;;;;;;10.79;60.80;101490.38;5027211;28;20065;-63
2022/03/12 07:47:45;;;;;;;10.95;8.40;;;;;;;10.85;60.56;101491.38;5029806;28;20041;-63
2022/03/12 07:50:11;;;;;;;12.23;8.20;;;;;;;10.90;60.31;101505.38;5027722;28;20033;-63
2022/03/12 07:52:37;;;;;;;10.75;8.13;;;;;;;10.93;60.76;101502.13;5029576;28;20104;-63
2022/03/12 07:55:04;;;;;;;9.73;8.20;;;;;;;10.99;60.11;101501.16;5030379;28;20124;-64
2022/03/12 07:57:30;;;;;;;10.93;8.57;;;;;;;11.04;60.20;101503.19;5028975;28;20128;-64
2022/03/12 07:59:55;;;;;;;10.63;8.15;;;;;;;11.03;60.25;101499.56;5029654;28;20112;-63
2022/03/12 08:02:20;;;;;;;11.10;8.55;;;;;;;11.07;60.54;101509.13;5029778;28;20033;-63
2022/03/12 08:04:46;;;;;;;11.98;8.20;;;;;;;11.12;60.69;101504.78;5028442;28;20038;-62
2022/03/12 08:07:11;;;;;;;11.55;8.18;;;;;;;11.16;60.24;101505.97;5029456;28;20029;-62
2022/03/12 08:09:37;;;;;;;10.68;9.00;;;;;;;11.19;59.99;101511.91;5041907;28;20108;-62
2022/03/12 08:12:02;;;;;;;8.90;8.00;;;;;;;11.26;59.89;101515.41;5026569;28;20041;-62
2022/03/12 08:14:28;;;;;;;10.20;8.18;;;;;;;11.33;59.56;101522.81;5024798;28;20144;-63
2022/03/12 08:16:54;;;;;;;11.38;8.40;;;;;;;11.36;59.61;101523.16;5014830;28;20438;-62
2022/03/12 08:19:20;;;;;;;10.75;8.38;;;;;;;11.43;59.78;101523.88;5026877;28;20029;-62
2022/03/12 08:21:47;;;;;;;12.60;8.55;;;;;;;11.45;59.50;101521.69;5029359;28;20044;-62
2022/03/12 08:24:15;;;;;;;8.98;7.93;;;;;;;11.49;59.32;101528.47;5018981;28;20025;-62
2022/03/12 08:26:45;;;;;;;10.93;7.93;;;;;;;11.55;59.38;101538.63;5016201;28;20034;-62
2022/03/12 08:29:12;;;;;;;10.85;8.02;;;;;;;11.62;59.24;101537.63;5024825;28;20511;-62
2022/03/12 08:31:39;;;;;;;9.73;8.05;;;;;;;11.69;60.15;101538.38;5020492;28;20026;-62
2022/03/12 08:34:04;;;;;;;10.55;8.45;;;;;;;11.76;59.70;101545.50;5027510;28;20131;-63
2022/03/12 08:36:30;;;;;;;11.65;8.05;;;;;;;11.86;59.01;101549.59;5024652;28;20497;-62
2022/03/12 08:38:55;;;;;;;13.48;8.20;;;;;;;11.96;58.69;101555.41;5026024;28;20037;-62
2022/03/12 08:41:21;;;;;;;11.18;8.48;;;;;;;12.01;59.08;101556.34;5015413;28;20030;-63
2022/03/12 08:43:50;;;;;;;9.40;8.02;;;;;;;12.00;58.93;101551.88;5023532;28;20659;-63
2022/03/12 08:46:19;;;;;;;9.10;7.97;;;;;;;12.14;58.67;101558.00;5022535;28;20022;-63
2022/03/12 08:48:47;;;;;;;11.32;7.32;;;;;;;12.18;58.52;101552.78;5024499;28;20033;-63
2022/03/12 08:51:12;;;;;;;11.15;7.50;;;;;;;12.21;58.13;101555.91;5024730;28;20567;-63
2022/03/12 08:53:38;;;;;;;9.48;7.28;;;;;;;12.28;57.87;101564.16;5020631;28;20053;-63
2022/03/12 08:56:04;;;;;;;11.10;7.22;;;;;;;12.34;58.06;101559.50;5018928;28;20025;-61
2022/03/12 08:58:34;;;;;;;11.05;7.05;;;;;;;12.31;57.97;101562.81;5027331;28;20412;-62
2022/03/12 09:01:01;;;;;;;10.18;6.18;;;;;;;12.32;57.54;101565.34;5017527;28;20037;-62
2022/03/12 09:03:28;;;;;;;8.50;5.45;;;;;;;12.31;57.27;101574.78;5026467;28;20415;-62
2022/03/12 09:05:54;;;;;;;8.60;5.22;;;;;;;12.34;56.89;101563.16;5027076;28;20108;-62
2022/03/12 09:08:19;;;;;;;11.70;5.55;;;;;;;12.38;56.54;101558.78;5024060;28;20037;-63
2022/03/12 09:10:46;;;;;;;8.77;5.18;;;;;;;12.39;56.27;101568.81;5022234;28;20033;-63
2022/03/12 09:13:17;;;;;;;8.52;5.20;;;;;;;12.42;56.55;101571.13;5022761;28;20104;-63
2022/03/12 09:15:42;;;;;;;6.22;5.05;;;;;;;12.45;56.56;101565.03;5026889;28;20033;-62
2022/03/12 09:18:11;;;;;;;7.32;5.28;;;;;;;12.48;56.90;101578.47;5011146;28;20041;-62
2022/03/12 09:20:45;;;;;;;9.40;5.20;;;;;;;12.49;56.14;101574.56;5016843;28;20106;-62
2022/03/12 09:23:13;;;;;;;6.68;4.90;;;;;;;12.45;56.09;101575.31;5025513;28;20640;-62
2022/03/12 09:25:50;;;;;;;8.73;4.95;;;;;;;12.44;55.96;101579.22;5023416;28;20021;-63
2022/03/12 09:28:19;;;;;;;11.95;4.85;;;;;;;12.37;55.67;101573.78;5023123;28;20029;-61
2022/03/12 09:30:50;;;;;;;10.55;4.93;;;;;;;12.46;55.74;101572.31;5022538;28;20018;-61
2022/03/12 09:33:17;;;;;;;8.20;4.70;;;;;;;12.55;55.30;101578.31;5028030;28;20036;-62
2022/03/12 09:35:43;;;;;;;9.05;4.43;;;;;;;12.64;55.28;101573.19;5027050;28;20431;-59
2022/03/12 09:38:09;;;;;;;11.40;5.10;;;;;;;12.67;54.13;101567.13;5020238;28;20026;-61
2022/03/12 09:40:35;;;;;;;6.63;4.30;;;;;;;12.73;54.23;101567.00;5028026;28;20029;-62
2022/03/12 09:43:00;;;;;;;11.15;4.07;;;;;;;12.78;53.53;101569.84;5027846;28;20087;-60
2022/03/12 09:45:26;;;;;;;10.90;4.13;;;;;;;12.86;53.12;101567.78;5028640;28;20044;-60
2022/03/12 09:47:52;;;;;;;8.20;3.75;;;;;;;12.87;52.30;101573.06;5029314;28;20433;-61
2022/03/12 09:50:17;;;;;;;6.72;3.47;;;;;;;12.79;52.79;101576.28;5028579;28;20033;-60
2022/03/12 09:52:43;;;;;;;7.30;3.85;;;;;;;12.85;52.33;101568.84;5020825;28;20116;-61
2022/03/12 09:55:10;;;;;;;9.85;3.60;;;;;;;12.76;52.25;101577.59;5024835;28;20113;-61
2022/03/12 09:57:35;;;;;;;7.18;3.45;;;;;;;12.68;52.52;101564.09;5027101;28;20042;-62
2022/03/12 10:00:04;;;;;;;6.15;3.00;;;;;;;12.65;52.49;101575.72;5022137;28;20514;-62
2022/03/12 10:02:29;;;;;;;8.40;3.50;;;;;;;12.64;52.34;101573.19;5024246;28;20060;-62
2022/03/12 10:04:55;;;;;;;7.32;3.47;;;;;;;12.65;52.15;101570.16;5024827;28;20025;-62
2022/03/12 10:07:20;;;;;;;7.93;3.40;;;;;;;12.66;52.25;101577.44;5025200;28;20446;-63
2022/03/12 10:09:45;;;;;;;7.82;3.88;;;;;;;12.73;52.24;101578.13;5023589;28;20029;-63
2022/03/12 10:12:11;;;;;;;7.57;3.42;;;;;;;12.85;52.13;101580.84;5018612;28;20034;-63
2022/03/12 10:14:36;;;;;;;9.52;3.13;;;;;;;12.94;52.27;101596.06;5028257;28;20034;-64
2022/03/12 10:17:03;;;;;;;8.38;3.45;;;;;;;12.97;51.61;101587.19;5025741;28;20029;-65
2022/03/12 10:19:34;;;;;;;4.72;3.00;;;;;;;13.02;51.57;101598.44;5021653;28;20029;-64
2022/03/12 10:21:59;;;;;;;11.90;3.60;;;;;;;12.99;51.12;101592.50;5029838;28;20034;-63
2022/03/12 10:24:25;;;;;;;9.90;3.53;;;;;;;13.02;51.05;101581.72;5028880;28;20649;-63
2022/03/12 10:26:50;;;;;;;11.27;3.42;;;;;;;13.06;51.52;101600.72;5019356;28;20013;-63
2022/03/12 10:29:16;;;;;;;6.00;3.03;;;;;;;13.06;51.22;101587.63;5024105;28;20033;-63
2022/03/12 10:31:41;;;;;;;8.75;2.78;;;;;;;13.10;51.03;101579.63;5025007;28;20033;-61
2022/03/12 10:34:14;;;;;;;6.03;2.95;;;;;;;13.11;51.53;101579.34;5030430;28;20045;-63
2022/03/12 10:36:39;;;;;;;6.85;3.13;;;;;;;13.12;50.98;101575.47;5022769;28;20037;-61
2022/03/12 10:39:05;;;;;;;5.68;2.60;;;;;;;13.23;51.13;101582.09;5025729;28;20029;-62
2022/03/12 10:41:59;;;;;;;8.43;2.80;;;;;;;13.36;50.59;101584.56;5024382;28;20037;-60
2022/03/12 10:44:33;;;;;;;6.55;2.50;;;;;;;13.47;50.36;101585.53;5023419;28;20033;-61
2022/03/12 10:46:58;;;;;;;8.38;3.10;;;;;;;13.55;49.81;101587.06;5023324;28;20932;-61
2022/03/12 10:49:23;;;;;;;9.95;3.42;;;;;;;13.68;49.46;101589.50;5025854;28;20025;-62
2022/03/12 10:51:49;;;;;;;7.72;2.92;;;;;;;13.66;49.44;101586.97;5025583;28;20273;-61
2022/03/12 10:54:15;;;;;;;5.72;2.60;;;;;;;13.59;48.61;101586.28;5014785;28;20079;-62
2022/03/12 10:56:52;;;;;;;11.95;3.00;;;;;;;13.61;49.41;101586.91;5030812;28;20025;-62
2022/03/12 10:59:24;;;;;;;6.57;2.70;;;;;;;13.72;49.36;101579.53;5028567;28;20103;-61
2022/03/12 11:01:55;;;;;;;7.05;3.00;;;;;;;13.87;48.97;101581.66;5026491;28;20167;-61
2022/03/12 11:04:23;;;;;;;5.40;2.78;;;;;;;14.00;49.02;101587.75;5026388;28;20120;-62
2022/03/12 11:06:51;;;;;;;7.13;2.63;;;;;;;14.13;48.42;101583.72;5025538;28;20078;-61
2022/03/12 11:09:30;;;;;;;8.32;2.88;;;;;;;14.19;48.17;101579.91;5026263;28;20075;-61
2022/03/12 11:11:58;;;;;;;6.82;2.70;;;;;;;14.31;48.29;101585.34;5027128;28;20083;-61
2022/03/12 11:14:24;;;;;;;8.40;2.90;;;;;;;14.30;46.82;101591.19;5021941;28;20071;-62
2022/03/12 11:16:53;;;;;;;6.40;2.58;;;;;;;14.29;46.58;101587.53;5024206;28;20033;-60